createdAt,value
2023-05-14T00:01:59.144Z,14.00
2023-05-14T00:04:47.912Z,14.40
2023-05-14T00:07:36.883Z,16.63
2023-05-14T00:10:25.736Z,27.30
2023-05-14T00:13:14.481Z,16.70
2023-05-14T00:16:03.256Z,13.67
2023-05-14T00:18:53.351Z,15.07
2023-05-14T00:21:42.258Z,16.30
2023-05-14T00:24:30.953Z,15.33
2023-05-14T00:27:21.336Z,27.53
2023-05-14T00:30:10.840Z,14.50
2023-05-14T00:32:59.659Z,15.27
2023-05-14T00:35:50.023Z,17.30
2023-05-14T00:38:38.931Z,18.77
2023-05-14T00:41:27.698Z,16.90
2023-05-14T00:44:16.400Z,17.13
2023-05-14T00:47:06.094Z,18.23
2023-05-14T00:49:55.175Z,18.50
2023-05-14T00:52:46.046Z,16.80
2023-05-14T00:55:35.120Z,20.50
2023-05-14T00:58:25.305Z,28.83
2023-05-14T01:01:15.329Z,25.30
2023-05-14T01:04:05.180Z,18.73
2023-05-14T01:07:10.273Z,17.93
2023-05-14T01:10:08.481Z,16.80
2023-05-14T01:13:09.258Z,20.77
2023-05-14T01:16:00.808Z,14.87
2023-05-14T01:18:52.670Z,13.67
2023-05-14T01:21:44.999Z,15.60
2023-05-14T01:24:34.105Z,14.30
2023-05-14T01:27:32.812Z,16.90
2023-05-14T01:30:31.064Z,16.00
2023-05-14T01:33:22.845Z,17.33
2023-05-14T01:36:12.148Z,12.23
2023-05-14T01:39:04.258Z,14.53
2023-05-14T01:41:54.423Z,15.60
2023-05-14T01:44:43.966Z,13.77
2023-05-14T01:47:32.932Z,15.33
2023-05-14T01:50:21.934Z,14.20
2023-05-14T01:53:10.847Z,13.07
2023-05-14T01:56:00.923Z,20.97
2023-05-14T01:58:49.603Z,15.13
2023-05-14T02:01:38.482Z,24.03
2023-05-14T02:04:27.307Z,13.27
2023-05-14T02:07:16.084Z,15.03
2023-05-14T02:10:05.090Z,13.97
2023-05-14T02:12:55.155Z,18.53
2023-05-14T02:15:43.921Z,15.00
2023-05-14T02:18:32.677Z,17.80
2023-05-14T02:21:21.623Z,20.73
2023-05-14T02:24:13.419Z,15.40
2023-05-14T02:27:02.170Z,16.47
2023-05-14T02:29:52.407Z,15.60
2023-05-14T02:32:41.438Z,16.40
2023-05-14T02:35:30.192Z,20.53
2023-05-14T02:38:18.900Z,30.20
2023-05-14T02:41:07.803Z,14.30
2023-05-14T02:43:56.523Z,15.77
2023-05-14T02:46:46.775Z,21.23
2023-05-14T02:49:35.549Z,23.07
2023-05-14T02:52:24.505Z,18.53
2023-05-14T02:55:13.490Z,15.83
2023-05-14T02:58:02.370Z,18.07
2023-05-14T03:00:51.406Z,16.50
2023-05-14T03:03:41.866Z,17.03
2023-05-14T03:06:31.468Z,18.70
2023-05-14T03:09:20.160Z,23.27
2023-05-14T03:12:09.622Z,19.03
2023-05-14T03:14:58.357Z,18.43
2023-05-14T03:17:47.104Z,18.60
2023-05-14T03:20:37.312Z,19.80
2023-05-14T03:23:26.286Z,17.10
2023-05-14T03:26:15.454Z,18.10
2023-05-14T03:29:04.408Z,17.03
2023-05-14T03:31:54.344Z,19.03
2023-05-14T03:34:44.647Z,19.33
2023-05-14T03:37:35.351Z,20.70
2023-05-14T03:40:24.242Z,17.53
2023-05-14T03:43:13.225Z,20.20
2023-05-14T03:46:01.991Z,19.37
2023-05-14T03:48:50.845Z,20.63
2023-05-14T03:51:39.695Z,20.80
2023-05-14T03:54:29.899Z,21.27
2023-05-14T03:57:18.637Z,23.13
2023-05-14T04:00:09.244Z,20.80
2023-05-14T04:03:06.039Z,24.83
2023-05-14T04:05:54.825Z,22.03
2023-05-14T04:08:43.533Z,23.47
2023-05-14T04:11:33.856Z,21.60
2023-05-14T04:14:22.808Z,25.97
2023-05-14T04:17:11.529Z,23.63
2023-05-14T04:20:02.134Z,22.10
2023-05-14T04:22:50.857Z,22.57
2023-05-14T04:25:39.595Z,22.17
2023-05-14T04:28:29.673Z,24.67
2023-05-14T04:31:18.578Z,23.00
2023-05-14T04:34:07.315Z,19.80
2023-05-14T04:36:55.976Z,20.50
2023-05-14T04:39:45.068Z,19.00
2023-05-14T04:42:33.887Z,22.37
2023-05-14T04:45:24.355Z,21.80
2023-05-14T04:48:13.140Z,18.87
2023-05-14T04:51:01.911Z,20.20
2023-05-14T04:53:50.608Z,17.30
2023-05-14T04:56:39.987Z,28.50
2023-05-14T04:59:28.658Z,19.97
2023-05-14T05:02:18.800Z,22.57
2023-05-14T05:05:08.708Z,20.67
2023-05-14T05:07:57.406Z,17.80
2023-05-14T05:10:46.123Z,14.30
2023-05-14T05:13:34.862Z,15.67
2023-05-14T05:16:23.629Z,16.07
2023-05-14T05:19:13.848Z,20.03
2023-05-14T05:22:03.754Z,16.73
2023-05-14T05:24:52.509Z,14.27
2023-05-14T05:27:41.331Z,14.80
2023-05-14T05:30:30.371Z,14.70
2023-05-14T05:33:19.828Z,17.90
2023-05-14T05:36:10.511Z,12.10
2023-05-14T05:38:59.228Z,12.43
2023-05-14T05:41:48.022Z,15.10
2023-05-14T05:44:36.768Z,16.07
2023-05-14T05:47:25.761Z,13.67
2023-05-14T05:50:15.005Z,13.30
2023-05-14T05:53:05.337Z,14.53
2023-05-14T05:55:54.235Z,14.03
2023-05-14T05:58:43.135Z,12.10
2023-05-14T06:01:32.075Z,11.60
2023-05-14T06:04:20.906Z,11.70
2023-05-14T06:07:09.738Z,14.63
2023-05-14T06:09:59.818Z,13.87
2023-05-14T06:12:48.667Z,12.10
2023-05-14T06:15:37.416Z,12.47
2023-05-14T06:18:26.245Z,14.00
2023-05-14T06:21:15.129Z,11.40
2023-05-14T06:24:04.013Z,12.37
2023-05-14T06:26:54.111Z,9.07
2023-05-14T06:29:43.340Z,14.20
2023-05-14T06:32:32.187Z,11.63
2023-05-14T06:35:21.124Z,11.40
2023-05-14T06:38:09.883Z,9.37
2023-05-14T06:40:58.627Z,9.80
2023-05-14T06:43:48.799Z,13.37
2023-05-14T06:46:38.091Z,9.97
2023-05-14T06:49:26.840Z,10.70
2023-05-14T06:52:15.554Z,10.60
2023-05-14T06:55:04.375Z,9.23
2023-05-14T06:57:53.686Z,11.23
2023-05-14T07:00:44.717Z,10.33
2023-05-14T07:03:33.438Z,10.43
2023-05-14T07:06:22.465Z,9.10
2023-05-14T07:09:11.800Z,10.47
2023-05-14T07:12:00.572Z,10.97
2023-05-14T07:14:49.286Z,9.40
2023-05-14T07:17:39.428Z,10.33
2023-05-14T07:20:28.484Z,7.30
2023-05-14T07:23:19.674Z,6.70
2023-05-14T07:26:10.109Z,7.07
2023-05-14T07:28:59.239Z,7.27
2023-05-14T07:31:48.973Z,7.77
2023-05-14T07:34:39.268Z,7.40
2023-05-14T07:37:28.210Z,11.43
2023-05-14T07:40:17.384Z,7.93
2023-05-14T07:43:06.227Z,8.07
2023-05-14T07:45:55.581Z,7.47
2023-05-14T07:48:44.443Z,7.03
2023-05-14T07:51:34.637Z,6.67
2023-05-14T07:54:23.452Z,7.40
2023-05-14T07:57:12.220Z,8.57
2023-05-14T08:00:01.091Z,6.90
2023-05-14T08:02:50.380Z,8.10
2023-05-14T08:05:39.311Z,8.30
2023-05-14T08:08:29.482Z,7.27
2023-05-14T08:11:18.545Z,8.30
2023-05-14T08:14:09.584Z,7.60
2023-05-14T08:16:58.421Z,10.83
2023-05-14T08:19:47.674Z,7.13
2023-05-14T08:22:36.287Z,9.30
2023-05-14T08:25:26.509Z,8.00
2023-05-14T08:28:15.297Z,8.03
2023-05-14T08:31:04.089Z,7.57
2023-05-14T08:33:52.995Z,8.00
2023-05-14T08:36:42.103Z,6.73
2023-05-14T08:39:31.206Z,8.20
2023-05-14T08:42:26.107Z,7.60
2023-05-14T08:45:20.338Z,6.70
2023-05-14T08:48:16.506Z,7.67
2023-05-14T08:51:05.793Z,6.97
2023-05-14T08:53:54.600Z,9.10
2023-05-14T08:56:45.457Z,7.10
2023-05-14T08:59:35.648Z,9.40
2023-05-14T09:02:28.949Z,7.93
2023-05-14T09:05:20.589Z,8.33
2023-05-14T09:08:09.587Z,8.40
2023-05-14T09:10:58.370Z,8.20
2023-05-14T09:13:47.175Z,7.50
2023-05-14T09:16:38.022Z,7.20
2023-05-14T09:19:27.888Z,7.47
2023-05-14T09:22:19.138Z,7.30
2023-05-14T09:25:12.007Z,7.33
2023-05-14T09:28:00.944Z,7.40
2023-05-14T09:30:52.698Z,7.60
2023-05-14T09:33:42.829Z,8.30
2023-05-14T09:36:31.627Z,8.73
2023-05-14T09:39:20.433Z,9.03
2023-05-14T09:42:09.707Z,16.63
2023-05-14T09:44:59.226Z,7.80
2023-05-14T09:47:48.207Z,7.50
2023-05-14T09:50:43.657Z,7.47
2023-05-14T09:53:33.764Z,7.93
2023-05-14T09:56:25.174Z,7.33
2023-05-14T09:59:14.149Z,8.20
2023-05-14T10:02:06.364Z,8.17
2023-05-14T10:04:58.052Z,7.73
2023-05-14T10:07:50.777Z,8.57
2023-05-14T10:10:40.014Z,7.37
2023-05-14T10:13:38.475Z,9.50
2023-05-14T10:16:36.092Z,8.20
2023-05-14T10:19:26.301Z,8.03
2023-05-14T10:22:19.843Z,7.97
2023-05-14T10:25:12.083Z,11.20
2023-05-14T10:28:02.066Z,9.53
2023-05-14T10:30:52.361Z,11.83
2023-05-14T10:33:50.148Z,16.80
2023-05-14T10:36:40.611Z,11.30
2023-05-14T10:39:44.186Z,20.33
2023-05-14T10:42:37.479Z,8.10
2023-05-14T10:45:27.945Z,13.60
2023-05-14T10:48:16.804Z,20.77
2023-05-14T10:51:08.810Z,9.13
2023-05-14T10:53:58.133Z,8.07
2023-05-14T10:56:47.537Z,10.70
2023-05-14T10:59:37.965Z,8.27
2023-05-14T11:02:30.427Z,8.47
2023-05-14T11:05:20.111Z,10.07
2023-05-14T11:08:10.126Z,8.03
2023-05-14T11:10:59.357Z,8.40
2023-05-14T11:13:48.942Z,8.60
2023-05-14T11:16:39.425Z,7.50
2023-05-14T11:19:28.237Z,8.40
2023-05-14T11:22:17.187Z,8.93
2023-05-14T11:25:08.106Z,7.67
2023-05-14T11:27:58.663Z,11.23
2023-05-14T11:30:47.686Z,7.50
2023-05-14T11:33:37.997Z,8.83
2023-05-14T11:36:27.435Z,7.37
2023-05-14T11:39:19.843Z,8.07
2023-05-14T11:42:14.692Z,8.33
2023-05-14T11:45:03.609Z,7.90
2023-05-14T11:47:54.848Z,7.67
2023-05-14T11:50:50.040Z,9.27
2023-05-14T11:53:38.835Z,7.70
2023-05-14T11:56:27.492Z,7.40
2023-05-14T11:59:18.591Z,8.40
2023-05-14T12:02:12.927Z,8.10
2023-05-14T12:05:03.720Z,9.43
2023-05-14T12:07:56.055Z,9.90
2023-05-14T12:10:44.869Z,8.90
2023-05-14T12:13:34.536Z,8.57
2023-05-14T12:16:23.332Z,7.87
2023-05-14T12:19:15.383Z,9.10
2023-05-14T12:22:04.273Z,8.03
2023-05-14T12:24:59.841Z,8.83
2023-05-14T12:27:48.653Z,7.37
2023-05-14T12:30:39.160Z,8.20
2023-05-14T12:33:28.603Z,8.40
2023-05-14T12:36:21.697Z,7.77
2023-05-14T12:39:12.643Z,7.50
2023-05-14T12:42:02.852Z,10.03
2023-05-14T12:44:51.591Z,10.00
2023-05-14T12:47:40.437Z,7.93
2023-05-14T12:50:31.461Z,8.37
2023-05-14T12:53:20.418Z,8.40
2023-05-14T12:56:10.260Z,8.70
2023-05-14T12:59:00.505Z,8.53
2023-05-14T13:01:49.270Z,7.90
2023-05-14T13:04:38.530Z,8.00
2023-05-14T13:07:27.685Z,7.93
2023-05-14T13:10:18.359Z,7.60
2023-05-14T13:13:07.152Z,9.10
2023-05-14T13:15:57.555Z,8.73
2023-05-14T13:18:46.333Z,9.90
2023-05-14T13:21:35.149Z,9.13
2023-05-14T13:24:24.979Z,10.30
2023-05-14T13:27:13.841Z,15.93
2023-05-14T13:30:02.708Z,16.07
2023-05-14T13:32:53.148Z,10.97
2023-05-14T13:35:42.044Z,15.37
2023-05-14T13:38:30.859Z,12.10
2023-05-14T13:41:19.684Z,13.30
2023-05-14T13:44:08.479Z,12.67
2023-05-14T13:46:57.243Z,12.90
2023-05-14T13:49:47.384Z,13.40
2023-05-14T13:52:36.552Z,20.07
2023-05-14T13:55:25.542Z,10.77
2023-05-14T13:58:14.692Z,9.63
2023-05-14T14:01:03.672Z,10.17
2023-05-14T14:03:52.569Z,9.73
2023-05-14T14:06:42.824Z,8.40
2023-05-14T14:09:34.979Z,9.20
2023-05-14T14:12:24.033Z,11.47
2023-05-14T14:15:13.931Z,12.73
2023-05-14T14:18:02.670Z,7.97
2023-05-14T14:20:51.709Z,6.83
2023-05-14T14:23:41.845Z,7.90
2023-05-14T14:26:30.768Z,9.83
2023-05-14T14:29:19.770Z,10.50
2023-05-14T14:32:09.250Z,9.40
2023-05-14T14:34:58.081Z,7.00
2023-05-14T14:37:50.740Z,8.53
2023-05-14T14:40:41.003Z,7.60
2023-05-14T14:43:29.833Z,8.50
2023-05-14T14:46:18.676Z,10.13
2023-05-14T14:49:07.511Z,10.50
2023-05-14T14:51:56.390Z,8.97
2023-05-14T14:54:45.543Z,7.80
2023-05-14T14:57:35.997Z,6.50
2023-05-14T15:00:25.045Z,6.70
2023-05-14T15:03:14.932Z,8.73
2023-05-14T15:06:03.898Z,6.43
2023-05-14T15:08:52.640Z,6.37
2023-05-14T15:11:42.652Z,13.43
2023-05-14T15:14:32.767Z,9.30
2023-05-14T15:17:21.755Z,6.50
2023-05-14T15:20:12.285Z,7.67
2023-05-14T15:23:01.102Z,5.97
2023-05-14T15:25:50.191Z,6.10
2023-05-14T15:28:39.026Z,8.30
2023-05-14T15:31:29.360Z,6.23
2023-05-14T15:34:18.209Z,6.73
2023-05-14T15:37:07.114Z,6.23
2023-05-14T15:39:55.895Z,8.30
2023-05-14T15:42:46.835Z,11.80
2023-05-14T15:45:35.621Z,14.63
2023-05-14T15:48:25.864Z,7.80
2023-05-14T15:51:15.404Z,6.73
2023-05-14T15:54:04.490Z,7.77
2023-05-14T15:56:53.316Z,7.73
2023-05-14T15:59:42.156Z,7.13
2023-05-14T16:02:33.174Z,9.20
2023-05-14T16:05:25.448Z,6.60
2023-05-14T16:08:14.362Z,9.17
2023-05-14T16:11:03.472Z,8.77
2023-05-14T16:13:52.279Z,6.93
2023-05-14T16:16:41.328Z,23.80
2023-05-14T16:19:30.427Z,7.03
2023-05-14T16:22:20.688Z,12.10
2023-05-14T16:25:10.699Z,10.40
2023-05-14T16:27:59.513Z,7.67
2023-05-14T16:30:48.594Z,7.03
2023-05-14T16:33:37.274Z,10.80
2023-05-14T16:36:26.805Z,6.50
2023-05-14T16:39:17.381Z,6.40
2023-05-14T16:42:06.955Z,6.50
2023-05-14T16:44:55.690Z,7.00
2023-05-14T16:47:44.495Z,10.50
2023-05-14T16:50:33.419Z,11.03
2023-05-14T16:53:22.143Z,31.13
2023-05-14T16:56:12.419Z,7.37
2023-05-14T16:59:01.182Z,7.37
2023-05-14T17:01:50.742Z,10.00
2023-05-14T17:04:42.076Z,6.50
2023-05-14T17:07:32.191Z,7.00
2023-05-14T17:10:21.115Z,7.60
2023-05-14T17:13:11.292Z,7.73
2023-05-14T17:16:00.524Z,6.80
2023-05-14T17:18:49.536Z,7.00
2023-05-14T17:21:38.330Z,6.10
2023-05-14T17:24:27.305Z,6.63
2023-05-14T17:27:16.750Z,7.70
2023-05-14T17:30:09.238Z,7.00
2023-05-14T17:32:58.148Z,7.40
2023-05-14T17:35:47.096Z,7.07
2023-05-14T17:38:36.607Z,7.17
2023-05-14T17:41:25.468Z,7.70
2023-05-14T17:44:14.196Z,7.90
2023-05-14T17:47:04.819Z,6.73
2023-05-14T17:49:55.816Z,6.20
2023-05-14T17:52:46.058Z,6.70
2023-05-14T17:55:39.880Z,11.30
2023-05-14T17:58:28.804Z,7.10
2023-05-14T18:01:17.669Z,8.03
2023-05-14T18:04:08.113Z,7.50
2023-05-14T18:06:57.123Z,6.80
2023-05-14T18:09:46.602Z,7.47
2023-05-14T18:12:35.425Z,7.03
2023-05-14T18:15:25.681Z,7.03
2023-05-14T18:18:17.073Z,6.93
2023-05-14T18:21:07.340Z,7.00
2023-05-14T18:23:56.212Z,6.90
2023-05-14T18:26:45.037Z,7.60
2023-05-14T18:29:33.958Z,7.50
2023-05-14T18:32:22.753Z,7.80
2023-05-14T18:35:13.978Z,6.73
2023-05-14T18:38:04.245Z,7.30
2023-05-14T18:40:53.222Z,7.40
2023-05-14T18:43:42.091Z,8.27
2023-05-14T18:46:31.265Z,8.57
2023-05-14T18:49:21.321Z,7.50
2023-05-14T18:52:13.014Z,8.90
2023-05-14T18:55:03.253Z,7.10
2023-05-14T18:57:52.791Z,7.00
2023-05-14T19:00:41.624Z,7.77
2023-05-14T19:03:30.599Z,9.80
2023-05-14T19:06:19.560Z,7.73
2023-05-14T19:09:08.449Z,9.17
2023-05-14T19:12:01.035Z,8.47
2023-05-14T19:14:49.921Z,8.23
2023-05-14T19:17:38.964Z,8.13
2023-05-14T19:20:27.991Z,9.50
2023-05-14T19:23:16.925Z,9.60
2023-05-14T19:26:07.136Z,9.10
2023-05-14T19:28:58.930Z,10.10
2023-05-14T19:31:47.764Z,9.67
2023-05-14T19:34:36.831Z,11.87
2023-05-14T19:37:26.204Z,11.03
2023-05-14T19:40:15.014Z,13.73
2023-05-14T19:43:03.808Z,10.83
2023-05-14T19:45:54.127Z,11.50
2023-05-14T19:48:43.048Z,11.43
2023-05-14T19:51:31.843Z,17.43
2023-05-14T19:54:20.677Z,9.93
2023-05-14T19:57:11.176Z,14.60
2023-05-14T19:59:59.904Z,14.47
2023-05-14T20:02:50.437Z,12.10
2023-05-14T20:05:39.339Z,10.50
2023-05-14T20:08:29.031Z,10.30
2023-05-14T20:11:19.485Z,10.40
2023-05-14T20:14:08.414Z,10.97
2023-05-14T20:16:58.043Z,12.00
2023-05-14T20:19:48.538Z,9.37
2023-05-14T20:22:38.298Z,11.30
2023-05-14T20:25:28.572Z,14.53
2023-05-14T20:28:17.708Z,10.80
2023-05-14T20:31:06.499Z,9.80
2023-05-14T20:33:55.328Z,11.37
2023-05-14T20:36:45.859Z,11.47
2023-05-14T20:39:34.698Z,10.57
2023-05-14T20:42:23.514Z,10.20
2023-05-14T20:45:12.953Z,11.00
2023-05-14T20:48:01.735Z,11.70
2023-05-14T20:50:50.575Z,10.33
2023-05-14T20:53:41.131Z,13.70
2023-05-14T20:56:30.335Z,10.10
2023-05-14T20:59:19.365Z,9.50
2023-05-14T21:02:08.199Z,8.30
2023-05-14T21:04:57.065Z,8.53
2023-05-14T21:07:45.811Z,7.90
2023-05-14T21:10:36.014Z,11.47
2023-05-14T21:13:24.819Z,8.90
2023-05-14T21:16:13.680Z,9.33
2023-05-14T21:19:02.583Z,13.10
2023-05-14T21:21:51.352Z,9.03
2023-05-14T21:24:40.104Z,10.20
2023-05-14T21:27:30.250Z,7.90
2023-05-14T21:30:19.111Z,7.70
2023-05-14T21:33:08.061Z,7.70
2023-05-14T21:35:56.952Z,8.80
2023-05-14T21:38:45.731Z,7.77
2023-05-14T21:41:34.535Z,8.77
2023-05-14T21:44:24.666Z,7.57
2023-05-14T21:47:13.627Z,8.33
2023-05-14T21:50:02.325Z,7.33
2023-05-14T21:52:51.650Z,8.10
2023-05-14T21:55:40.780Z,7.33
2023-05-14T21:58:30.035Z,7.87
2023-05-14T22:01:20.230Z,7.00
2023-05-14T22:04:09.008Z,9.07
2023-05-14T22:06:57.769Z,8.07
2023-05-14T22:09:46.459Z,7.23
2023-05-14T22:12:35.157Z,8.50
2023-05-14T22:15:24.134Z,7.50
2023-05-14T22:18:15.460Z,11.47
2023-05-14T22:21:04.521Z,8.63
2023-05-14T22:23:53.273Z,8.80
2023-05-14T22:26:42.081Z,7.77
2023-05-14T22:29:30.897Z,11.40
2023-05-14T22:32:19.616Z,8.40
2023-05-14T22:35:11.222Z,8.97
2023-05-14T22:38:00.079Z,8.40
2023-05-14T22:40:48.872Z,7.63
2023-05-14T22:43:37.830Z,8.37
2023-05-14T22:46:26.735Z,8.17
2023-05-14T22:49:15.907Z,7.40
2023-05-14T22:52:07.021Z,9.07
2023-05-14T22:54:55.800Z,6.90
2023-05-14T22:57:44.982Z,9.83
2023-05-14T23:00:33.776Z,14.50
2023-05-14T23:03:22.487Z,10.50
2023-05-14T23:06:14.393Z,10.07
2023-05-14T23:09:04.643Z,9.33
2023-05-14T23:11:53.352Z,8.60
2023-05-14T23:14:42.646Z,9.30
2023-05-14T23:17:31.454Z,17.50
2023-05-14T23:20:20.296Z,10.97
2023-05-14T23:23:09.012Z,7.80
2023-05-14T23:25:59.241Z,8.13
2023-05-14T23:28:48.300Z,10.57
2023-05-14T23:31:38.635Z,9.70
2023-05-14T23:34:27.437Z,7.67
2023-05-14T23:37:16.225Z,8.23
2023-05-14T23:40:07.647Z,12.37
2023-05-14T23:42:59.306Z,7.27
2023-05-14T23:45:48.187Z,8.30
2023-05-14T23:48:38.192Z,8.40
2023-05-14T23:51:28.464Z,7.57
2023-05-14T23:54:17.344Z,8.00
2023-05-14T23:57:06.559Z,7.67
2023-05-14T23:59:56.757Z,7.73
